Farmersville's Hourly Summary for Wednesday, April 19, 2017
Hour Temp
(f)
RH
(%)
Solar Rad.
(MJ/m2)
Rainfall
(in)
Wind
(mph)
4/19/2017 12:00 AM 64 95 0 0 1.17
4/19/2017 1:00 AM 64 96 0 0 1.22
4/19/2017 2:00 AM 64 99 0 0 1.53
4/19/2017 3:00 AM 63 99 0 0 1.32
4/19/2017 4:00 AM 63 99 0 0 1.69
4/19/2017 5:00 AM 62 99 0 0 1.77
4/19/2017 6:00 AM 62 99 0 0 1.35
4/19/2017 7:00 AM 64 99 0 0 2.04
4/19/2017 8:00 AM 65 99 0.12 0 1.7
4/19/2017 9:00 AM 66 100 0.33 0 2.44
4/19/2017 10:00 AM 68 99 0.71 0 3.34
4/19/2017 11:00 AM 69 86 0.72 0 4.05
4/19/2017 12:00 PM 71 73 1.39 0 4.94
4/19/2017 1:00 PM 73 69 1.31 0 5.36
4/19/2017 2:00 PM 76 62 2.48 0 5.54
4/19/2017 3:00 PM 78 59 2.21 0 5.04
4/19/2017 4:00 PM 78 58 1.55 0 4.62
4/19/2017 5:00 PM 79 58 1.78 0 4.89
4/19/2017 6:00 PM 78 61 0.81 0 3.77
4/19/2017 7:00 PM 79 58 0.7 0 3.51
4/19/2017 8:00 PM 77 62 0.19 0 2.1
4/19/2017 9:00 PM 73 72 0 0 2.82
4/19/2017 10:00 PM 72 83 0 0 3.88
4/19/2017 11:00 PM 71 80 0 0 3.26
Data Summary 69 81 14.30 0.00 3.06